首页
METAR-TAF:

METAR-TAF

机场 :

路沙卡, 赞比亚

肯尼思·卡翁达国际机场

纬度: 15-19-51S, 经度: 028-27-09E, 海拔: 1152米

当前天气观测

该预报发布于4小时和54分钟前的02:00 UTC
风速1节,风向
温度 13°C
湿度 82%
气压 1021 hPa
能见度10公里或以上
1500米以下无云,无积雨云

METAR: FLKK 250200Z 18001KT CAVOK 13/10 Q1021

时间: 08:54 (06:54 UTC)

预报

该预报发布于26小时和54分钟前的04:00 UTC
预报有效从23日的 06点(UTC)到 24日的 12点(UTC)
风速4节,风向多变
能见度10公里或以上
1500米以下无云,无积雨云
成为
从 23日的 08点(UTC)到 23日的 14点(UTC)
风速10节,风向
能见度10公里或以上
散云层高于3000英尺
成为
从 23日的 18点(UTC)到 23日的 20点(UTC)
风速4节,风向多变
能见度10公里或以上
1500米以下无云,无积雨云
成为
从 24日的 08点(UTC)到 23日的 12点(UTC)
风速10节,风向
能见度10公里或以上
散云层高于3000英尺

TAF: FLKK 230400Z 2306/2412 VRB04KT CAVOK BECMG 2308/2314 10010KT 9999 SCT030 BECMG 2318/2320 VRB04KT CAVOK BECMG 2408/2312 10010KT 9999 SCT030

超过4000个机场的气象观测和天气预报(METAR&TAF报告)。

可查询的气象台以黄色和红色小点在地图上表示。

将鼠标移到小点上方,可查看气象台名称。

然后点击查看天气观测和预报。

如需切换地图:点击带黑十字的绿色按钮放大地图;点击带横线的绿色按钮缩小地图;或者点击绿色箭头查看邻近地区的地图。


METAR-TAF: